createdAt,value
2019-02-19T00:01:02.293Z,2.10
2019-02-19T00:03:34.253Z,2.11
2019-02-19T00:06:06.242Z,2.07
2019-02-19T00:08:38.443Z,2.08
2019-02-19T00:11:10.450Z,2.06
2019-02-19T00:13:42.432Z,2.00
2019-02-19T00:16:14.418Z,1.96
2019-02-19T00:18:46.417Z,2.00
2019-02-19T00:21:18.517Z,1.96
2019-02-19T00:23:50.488Z,1.94
2019-02-19T00:26:22.641Z,2.00
2019-02-19T00:28:54.637Z,1.96
2019-02-19T00:31:26.846Z,1.94
2019-02-19T00:34:00.600Z,1.89
2019-02-19T00:36:32.613Z,1.84
2019-02-19T00:39:04.917Z,1.87
2019-02-19T00:41:36.916Z,1.93
2019-02-19T00:44:08.884Z,1.88
2019-02-19T00:46:40.936Z,1.83
2019-02-19T00:49:12.889Z,1.86
2019-02-19T00:51:44.902Z,1.88
2019-02-19T00:54:16.880Z,1.94
2019-02-19T00:56:48.881Z,1.92
2019-02-19T00:59:20.875Z,1.93
2019-02-19T01:01:52.866Z,1.93
2019-02-19T01:04:24.835Z,1.94
2019-02-19T01:06:56.832Z,1.93
2019-02-19T01:09:28.822Z,1.85
2019-02-19T01:12:00.883Z,1.77
2019-02-19T01:14:32.885Z,1.75
2019-02-19T01:17:04.815Z,1.68
2019-02-19T01:19:36.797Z,1.76
2019-02-19T01:22:08.856Z,1.77
2019-02-19T01:24:40.840Z,1.79
2019-02-19T01:27:12.831Z,1.76
2019-02-19T01:29:44.852Z,1.82
2019-02-19T01:32:16.800Z,1.79
2019-02-19T01:34:48.807Z,1.77
2019-02-19T01:37:40.241Z,1.74
2019-02-19T01:40:12.255Z,1.69
2019-02-19T01:42:44.264Z,1.65
2019-02-19T01:45:16.216Z,1.53
2019-02-19T01:47:48.169Z,1.53
2019-02-19T01:50:20.194Z,1.56
2019-02-19T01:52:52.181Z,1.56
2019-02-19T01:55:25.133Z,1.59
2019-02-19T01:57:57.099Z,1.56
2019-02-19T02:00:29.115Z,1.55
2019-02-19T02:03:02.907Z,1.46
2019-02-19T02:05:34.939Z,1.47
2019-02-19T02:08:06.928Z,1.45
2019-02-19T02:10:38.922Z,1.40
2019-02-19T02:13:10.896Z,1.37
2019-02-19T02:15:43.031Z,1.38
2019-02-19T02:18:14.960Z,1.41
2019-02-19T02:20:47.056Z,1.46
2019-02-19T02:23:19.023Z,1.35
2019-02-19T02:25:51.027Z,1.30
2019-02-19T02:28:22.993Z,1.27
2019-02-19T02:30:54.980Z,1.22
2019-02-19T02:33:26.944Z,1.24
2019-02-19T02:35:58.939Z,1.19
2019-02-19T02:38:30.913Z,1.20
2019-02-19T02:41:02.914Z,1.22
2019-02-19T02:43:34.883Z,1.25
2019-02-19T02:46:06.897Z,1.23
2019-02-19T02:48:38.847Z,1.11
2019-02-19T02:51:10.840Z,1.15
2019-02-19T02:53:42.934Z,1.15
2019-02-19T02:56:16.047Z,1.11
2019-02-19T02:58:48.008Z,1.04
2019-02-19T03:01:20.011Z,1.02
2019-02-19T03:03:51.980Z,1.00
2019-02-19T03:06:29.889Z,1.08
2019-02-19T03:09:01.869Z,1.10
2019-02-19T03:11:33.859Z,1.08
2019-02-19T03:14:07.541Z,1.13
2019-02-19T03:16:39.527Z,1.11
2019-02-19T03:19:11.574Z,1.08
2019-02-19T03:21:43.542Z,1.01
2019-02-19T03:24:15.502Z,0.99
2019-02-19T03:26:47.497Z,0.95
2019-02-19T03:29:19.462Z,0.97
2019-02-19T03:31:51.455Z,0.93
2019-02-19T03:34:23.440Z,0.90
2019-02-19T03:36:55.434Z,0.88
2019-02-19T03:39:27.454Z,0.85
2019-02-19T03:41:59.453Z,0.85
2019-02-19T03:44:31.444Z,0.81
2019-02-19T03:47:03.430Z,0.75
2019-02-19T03:49:35.417Z,0.73
2019-02-19T03:52:07.485Z,0.76
2019-02-19T03:54:39.456Z,0.75
2019-02-19T03:57:11.453Z,0.70
2019-02-19T03:59:43.517Z,0.67
2019-02-19T04:02:15.501Z,0.60
2019-02-19T04:04:47.491Z,0.49
2019-02-19T04:07:19.449Z,0.48
2019-02-19T04:09:51.464Z,0.55
2019-02-19T04:12:23.466Z,0.56
2019-02-19T04:14:55.569Z,0.55
2019-02-19T04:17:27.543Z,0.56
2019-02-19T04:19:59.611Z,0.63
2019-02-19T04:22:33.396Z,0.70
2019-02-19T04:25:05.363Z,0.76
2019-02-19T04:27:37.325Z,0.87
2019-02-19T04:30:09.332Z,0.85
2019-02-19T04:32:41.289Z,0.96
2019-02-19T04:35:13.289Z,0.87
2019-02-19T04:37:46.387Z,0.77
2019-02-19T04:40:19.722Z,0.84
2019-02-19T04:42:51.699Z,0.88
2019-02-19T04:45:23.714Z,0.90
2019-02-19T04:47:55.708Z,0.97
2019-02-19T04:50:27.686Z,0.99
2019-02-19T04:52:59.643Z,1.00
2019-02-19T04:55:31.664Z,0.95
2019-02-19T04:58:03.630Z,0.98
2019-02-19T05:00:35.643Z,0.93
2019-02-19T05:03:07.616Z,0.81
2019-02-19T05:05:39.602Z,0.74
2019-02-19T05:08:11.575Z,0.70
2019-02-19T05:10:43.641Z,0.59
2019-02-19T05:13:15.634Z,0.63
2019-02-19T05:15:47.635Z,0.64
2019-02-19T05:18:19.610Z,0.73
2019-02-19T05:20:51.607Z,0.70
2019-02-19T05:23:23.601Z,0.86
2019-02-19T05:25:55.629Z,0.66
2019-02-19T05:28:27.594Z,0.78
2019-02-19T05:30:59.577Z,0.74
2019-02-19T05:33:31.552Z,0.71
2019-02-19T05:36:03.589Z,0.71
2019-02-19T05:38:35.528Z,0.77
2019-02-19T05:41:07.758Z,0.71
2019-02-19T05:43:39.775Z,0.55
2019-02-19T05:46:11.797Z,0.63
2019-02-19T05:48:43.761Z,0.61
2019-02-19T05:51:15.765Z,0.57
2019-02-19T05:53:47.742Z,0.47
2019-02-19T05:56:19.767Z,0.51
2019-02-19T05:58:51.767Z,0.53
2019-02-19T06:01:23.779Z,0.58
2019-02-19T06:03:55.839Z,0.65
2019-02-19T06:06:27.871Z,0.64
2019-02-19T06:08:59.863Z,0.59
2019-02-19T06:11:32.059Z,0.63
2019-02-19T06:14:04.072Z,0.67
2019-02-19T06:16:36.106Z,0.72
2019-02-19T06:19:08.168Z,0.73
2019-02-19T06:21:40.174Z,0.84
2019-02-19T06:24:12.159Z,0.87
2019-02-19T06:26:44.141Z,1.03
2019-02-19T06:29:16.167Z,0.97
2019-02-19T06:31:48.116Z,0.88
2019-02-19T06:34:20.113Z,1.05
2019-02-19T06:36:52.100Z,0.97
2019-02-19T06:39:24.107Z,0.82
2019-02-19T06:41:56.065Z,0.94
2019-02-19T06:44:28.710Z,0.79
2019-02-19T06:47:06.686Z,0.82
2019-02-19T06:49:34.615Z,0.83
2019-02-19T06:52:06.789Z,0.99
2019-02-19T06:54:38.795Z,1.28
2019-02-19T06:57:10.766Z,1.13
2019-02-19T06:59:42.778Z,1.29
2019-02-19T07:02:23.744Z,1.32
2019-02-19T07:04:58.324Z,1.43
2019-02-19T07:07:30.348Z,1.49
2019-02-19T07:10:02.345Z,1.73
2019-02-19T07:12:34.327Z,2.00
2019-02-19T07:15:06.376Z,2.30
2019-02-19T07:17:38.349Z,2.65
2019-02-19T07:20:10.397Z,2.87
2019-02-19T07:22:42.377Z,2.93
2019-02-19T07:25:14.396Z,3.10
2019-02-19T07:27:46.374Z,3.28
2019-02-19T07:30:18.366Z,3.45
2019-02-19T07:32:50.344Z,3.60
2019-02-19T07:35:22.379Z,3.67
2019-02-19T07:37:54.384Z,3.87
2019-02-19T07:40:26.375Z,3.92
2019-02-19T07:42:58.383Z,4.13
2019-02-19T07:45:30.363Z,4.33
2019-02-19T07:48:02.384Z,4.53
2019-02-19T07:50:34.410Z,4.79
2019-02-19T07:53:06.896Z,4.86
2019-02-19T07:55:38.917Z,5.13
2019-02-19T07:58:10.922Z,5.33
2019-02-19T08:00:42.927Z,5.40
2019-02-19T08:03:14.945Z,5.45
2019-02-19T08:05:46.910Z,5.52
2019-02-19T08:08:18.923Z,5.53
2019-02-19T08:10:50.947Z,5.52
2019-02-19T08:13:22.994Z,5.49
2019-02-19T08:15:55.060Z,5.63
2019-02-19T08:18:27.082Z,5.70
2019-02-19T08:20:59.127Z,5.66
2019-02-19T08:23:31.124Z,5.67
2019-02-19T08:26:03.148Z,5.60
2019-02-19T08:28:35.169Z,5.55
2019-02-19T08:31:07.197Z,5.45
2019-02-19T08:33:39.216Z,5.41
2019-02-19T08:36:11.249Z,5.52
2019-02-19T08:38:43.242Z,5.47
2019-02-19T08:41:15.342Z,5.43
2019-02-19T08:43:47.343Z,5.50
2019-02-19T08:46:19.349Z,5.58
2019-02-19T08:49:32.120Z,5.59
2019-02-19T08:52:04.136Z,5.72
2019-02-19T08:54:36.153Z,5.78
2019-02-19T08:57:08.286Z,5.93
2019-02-19T08:59:40.278Z,5.97
2019-02-19T09:02:12.283Z,6.01
2019-02-19T09:04:44.245Z,6.14
2019-02-19T09:07:16.255Z,6.27
2019-02-19T09:09:48.203Z,6.45
2019-02-19T09:12:20.221Z,6.56
2019-02-19T09:14:52.201Z,6.66
2019-02-19T09:17:24.187Z,6.83
2019-02-19T09:19:56.184Z,7.09
2019-02-19T09:22:28.205Z,7.21
2019-02-19T09:25:00.325Z,7.26
2019-02-19T09:27:32.312Z,7.30
2019-02-19T09:30:05.466Z,7.36
2019-02-19T09:32:37.456Z,7.35
2019-02-19T09:35:09.473Z,7.37
2019-02-19T09:37:41.435Z,7.50
2019-02-19T09:40:13.419Z,7.61
2019-02-19T09:42:45.380Z,7.67
2019-02-19T09:45:17.380Z,7.86
2019-02-19T09:47:49.385Z,8.05
2019-02-19T09:50:21.371Z,8.22
2019-02-19T09:52:59.795Z,8.36
2019-02-19T09:55:27.256Z,8.48
2019-02-19T09:57:59.240Z,8.57
2019-02-19T10:00:31.240Z,8.69
2019-02-19T10:03:03.273Z,8.72
2019-02-19T10:05:35.282Z,8.74
2019-02-19T10:08:07.365Z,8.95
2019-02-19T10:10:39.351Z,9.00
2019-02-19T10:13:11.363Z,9.03
2019-02-19T10:15:43.375Z,9.16
2019-02-19T10:18:15.345Z,9.26
2019-02-19T10:20:47.377Z,9.42
2019-02-19T10:23:19.342Z,9.56
2019-02-19T10:25:51.389Z,9.71
2019-02-19T10:28:23.389Z,9.89
2019-02-19T10:30:55.365Z,10.07
2019-02-19T10:33:27.368Z,10.23
2019-02-19T10:35:59.369Z,10.28
2019-02-19T10:38:31.353Z,10.28
2019-02-19T10:41:03.389Z,10.18
2019-02-19T10:43:35.383Z,10.16
2019-02-19T10:46:07.384Z,10.20
2019-02-19T10:48:39.353Z,10.21
2019-02-19T10:51:11.343Z,10.24
2019-02-19T10:53:43.300Z,10.22
2019-02-19T10:56:15.310Z,10.22
2019-02-19T10:58:47.297Z,10.32
2019-02-19T11:01:19.311Z,10.43
2019-02-19T11:03:51.303Z,10.58
2019-02-19T11:06:23.321Z,10.71
2019-02-19T11:08:55.314Z,10.75
2019-02-19T11:11:27.305Z,10.78
2019-02-19T11:13:59.304Z,10.75
2019-02-19T11:16:31.314Z,10.79
2019-02-19T11:19:03.295Z,10.79
2019-02-19T11:21:35.351Z,11.00
2019-02-19T11:24:07.363Z,11.22
2019-02-19T11:26:39.413Z,11.78
2019-02-19T11:29:11.438Z,11.78
2019-02-19T11:31:43.444Z,11.94
2019-02-19T11:34:15.488Z,12.03
2019-02-19T11:36:47.490Z,12.20
2019-02-19T11:39:19.517Z,12.34
2019-02-19T11:41:51.509Z,12.52
2019-02-19T11:44:23.516Z,12.63
2019-02-19T11:46:55.531Z,12.66
2019-02-19T11:49:27.554Z,12.79
2019-02-19T11:51:59.526Z,12.76
2019-02-19T11:54:31.514Z,12.73
2019-02-19T11:57:03.462Z,12.62
2019-02-19T11:59:35.442Z,12.70
2019-02-19T12:02:11.867Z,12.79
2019-02-19T12:04:43.884Z,12.91
2019-02-19T12:07:15.876Z,12.97
2019-02-19T12:09:47.978Z,12.97
2019-02-19T12:12:19.952Z,12.96
2019-02-19T12:14:52.005Z,12.95
2019-02-19T12:17:24.041Z,12.88
2019-02-19T12:19:56.109Z,12.75
2019-02-19T12:22:28.091Z,12.81
2019-02-19T12:25:00.107Z,12.91
2019-02-19T12:27:32.250Z,12.98
2019-02-19T12:30:05.179Z,13.03
2019-02-19T12:32:37.181Z,13.04
2019-02-19T12:35:09.216Z,13.12
2019-02-19T12:37:41.207Z,13.27
2019-02-19T12:40:13.192Z,13.33
2019-02-19T12:42:45.164Z,13.39
2019-02-19T12:45:17.156Z,13.38
2019-02-19T12:47:49.166Z,13.51
2019-02-19T12:50:21.196Z,13.55
2019-02-19T12:52:53.448Z,13.48
2019-02-19T12:55:25.469Z,13.38
2019-02-19T12:57:57.457Z,13.27
2019-02-19T13:00:29.455Z,13.09
2019-02-19T13:03:01.440Z,13.13
2019-02-19T13:05:33.449Z,12.97
2019-02-19T13:08:05.398Z,12.93
2019-02-19T13:10:37.422Z,12.62
2019-02-19T13:13:09.396Z,12.62
2019-02-19T13:15:41.447Z,12.47
2019-02-19T13:18:13.438Z,12.50
2019-02-19T13:20:45.471Z,12.36
2019-02-19T13:23:17.497Z,12.34
2019-02-19T13:25:49.506Z,12.24
2019-02-19T13:28:21.516Z,12.15
2019-02-19T13:30:53.528Z,12.11
2019-02-19T13:33:25.545Z,11.99
2019-02-19T13:35:57.558Z,11.91
2019-02-19T13:38:29.578Z,11.86
2019-02-19T13:41:01.601Z,11.97
2019-02-19T13:43:33.641Z,11.80
2019-02-19T13:46:05.672Z,11.71
2019-02-19T13:48:37.643Z,11.56
2019-02-19T13:51:09.655Z,11.50
2019-02-19T13:53:50.113Z,11.44
2019-02-19T13:56:22.137Z,11.40
2019-02-19T13:58:54.170Z,11.37
2019-02-19T14:01:26.152Z,11.34
2019-02-19T14:03:58.158Z,11.31
2019-02-19T14:06:30.307Z,11.42
2019-02-19T14:09:03.341Z,11.29
2019-02-19T14:11:35.341Z,11.18
2019-02-19T14:14:17.132Z,11.05
2019-02-19T14:16:55.421Z,11.04
2019-02-19T14:19:45.437Z,10.95
2019-02-19T14:22:46.161Z,10.96
2019-02-19T14:25:36.139Z,10.97
2019-02-19T14:28:36.989Z,10.91
2019-02-19T14:31:28.563Z,10.81
2019-02-19T14:34:27.186Z,10.74
2019-02-19T14:37:27.792Z,10.72
2019-02-19T14:40:31.467Z,10.65
2019-02-19T14:43:41.220Z,10.65
2019-02-19T14:46:32.830Z,10.67
2019-02-19T14:49:34.092Z,10.50
2019-02-19T14:52:04.594Z,10.44
2019-02-19T14:54:56.853Z,10.44
2019-02-19T14:57:50.691Z,10.46
2019-02-19T15:00:42.301Z,10.43
2019-02-19T15:03:42.742Z,10.38
2019-02-19T15:06:43.183Z,10.43
2019-02-19T15:09:37.622Z,10.36
2019-02-19T15:12:38.276Z,10.41
2019-02-19T15:15:36.796Z,10.36
2019-02-19T15:18:16.627Z,10.34
2019-02-19T15:21:26.432Z,10.32
2019-02-19T15:24:16.561Z,10.27
2019-02-19T15:27:11.222Z,10.24
2019-02-19T15:30:16.407Z,10.19
2019-02-19T15:33:10.811Z,10.22
2019-02-19T15:36:14.742Z,10.17
2019-02-19T15:38:53.683Z,10.17
2019-02-19T15:41:54.361Z,10.14
2019-02-19T15:44:44.562Z,10.11
2019-02-19T15:47:36.240Z,10.14
2019-02-19T15:50:19.007Z,10.10
2019-02-19T15:53:10.651Z,10.10
2019-02-19T15:56:00.927Z,10.14
2019-02-19T15:58:50.015Z,10.09
2019-02-19T16:01:36.716Z,10.04
2019-02-19T16:04:34.298Z,10.00
2019-02-19T16:07:41.095Z,9.97
2019-02-19T16:10:50.884Z,9.97
2019-02-19T16:13:31.559Z,9.95
2019-02-19T16:16:30.427Z,9.89
2019-02-19T16:19:32.588Z,9.87
2019-02-19T16:22:11.153Z,9.83
2019-02-19T16:25:01.830Z,9.78
2019-02-19T16:27:52.338Z,9.81
2019-02-19T16:30:42.711Z,9.77
2019-02-19T16:33:29.570Z,9.73
2019-02-19T16:36:11.129Z,9.70
2019-02-19T16:38:56.105Z,9.66
2019-02-19T16:41:50.809Z,9.64
2019-02-19T16:44:51.553Z,9.61
2019-02-19T16:47:45.898Z,9.58
2019-02-19T16:50:43.612Z,9.56
2019-02-19T16:53:31.315Z,9.52
2019-02-19T16:56:26.968Z,9.48
2019-02-19T16:59:26.944Z,9.47
2019-02-19T17:02:20.946Z,9.40
2019-02-19T17:05:15.709Z,9.36
2019-02-19T17:08:10.197Z,9.31
2019-02-19T17:10:52.509Z,9.32
2019-02-19T17:13:42.993Z,9.31
2019-02-19T17:16:29.997Z,9.31
2019-02-19T17:19:11.845Z,9.27
2019-02-19T17:22:01.930Z,9.25
2019-02-19T17:24:45.035Z,9.25
2019-02-19T17:27:39.548Z,9.23
2019-02-19T17:30:46.387Z,9.22
2019-02-19T17:33:43.721Z,9.21
2019-02-19T17:36:41.611Z,9.19
2019-02-19T17:39:33.207Z,9.19
2019-02-19T17:42:27.053Z,9.15
2019-02-19T17:45:23.688Z,9.16
2019-02-19T17:48:07.015Z,9.13
2019-02-19T17:50:58.861Z,9.11
2019-02-19T17:53:43.102Z,9.10
2019-02-19T17:56:37.238Z,9.07
2019-02-19T17:59:31.574Z,9.08
2019-02-19T18:02:26.108Z,9.07
2019-02-19T18:05:16.337Z,9.08
2019-02-19T18:08:03.725Z,9.09
2019-02-19T18:10:58.258Z,9.06
2019-02-19T18:13:49.973Z,9.03
2019-02-19T18:16:40.438Z,9.02
2019-02-19T18:19:12.633Z,9.02
2019-02-19T18:21:44.794Z,8.98
2019-02-19T18:24:16.840Z,8.96
2019-02-19T18:26:48.908Z,8.95
2019-02-19T18:29:21.085Z,8.89
2019-02-19T18:31:53.272Z,8.95
2019-02-19T18:34:25.373Z,8.90
2019-02-19T18:36:57.604Z,8.89
2019-02-19T18:39:29.806Z,8.91
2019-02-19T18:42:01.986Z,8.88
2019-02-19T18:44:34.335Z,8.84
2019-02-19T18:47:08.401Z,8.84
2019-02-19T18:49:41.875Z,8.80
2019-02-19T18:52:13.989Z,8.79
2019-02-19T18:54:47.168Z,8.76
2019-02-19T18:57:19.342Z,8.75
2019-02-19T18:59:51.453Z,8.69
2019-02-19T19:02:23.799Z,8.68
2019-02-19T19:04:56.173Z,8.64
2019-02-19T19:07:28.252Z,8.66
2019-02-19T19:10:00.788Z,8.63
2019-02-19T19:12:33.054Z,8.54
2019-02-19T19:15:06.109Z,8.51
2019-02-19T19:17:38.233Z,8.47
2019-02-19T19:20:10.482Z,8.39
2019-02-19T19:22:42.889Z,8.30
2019-02-19T19:25:15.109Z,8.21
2019-02-19T19:27:47.213Z,8.13
2019-02-19T19:30:19.673Z,8.06
2019-02-19T19:32:51.866Z,7.98
2019-02-19T19:35:24.111Z,7.86
2019-02-19T19:37:56.331Z,7.78
2019-02-19T19:40:29.898Z,7.66
2019-02-19T19:43:01.971Z,7.57
2019-02-19T19:45:34.260Z,7.48
2019-02-19T19:48:06.448Z,7.42
2019-02-19T19:50:38.968Z,7.37
2019-02-19T19:53:11.238Z,7.29
2019-02-19T19:55:43.436Z,7.19
2019-02-19T19:58:15.711Z,7.12
2019-02-19T20:00:47.935Z,7.09
2019-02-19T20:03:21.376Z,7.00
2019-02-19T20:05:53.540Z,6.96
2019-02-19T20:08:25.728Z,6.89
2019-02-19T20:10:57.995Z,6.83
2019-02-19T20:13:30.187Z,6.77
2019-02-19T20:16:02.702Z,6.68
2019-02-19T20:18:39.120Z,6.56
2019-02-19T20:21:09.314Z,6.45
2019-02-19T20:23:41.626Z,6.37
2019-02-19T20:26:13.954Z,6.21
2019-02-19T20:28:46.119Z,6.16
2019-02-19T20:31:18.340Z,6.08
2019-02-19T20:33:50.677Z,6.04
2019-02-19T20:36:24.200Z,5.94
2019-02-19T20:38:56.573Z,5.91
2019-02-19T20:41:28.838Z,5.85
2019-02-19T20:44:01.173Z,5.69
2019-02-19T20:46:34.570Z,5.69
2019-02-19T20:49:06.940Z,5.61
2019-02-19T20:51:39.172Z,5.53
2019-02-19T20:54:11.301Z,5.45
2019-02-19T20:56:43.462Z,5.41
2019-02-19T20:59:15.640Z,5.35
2019-02-19T21:01:47.896Z,5.29
2019-02-19T21:04:20.105Z,5.28
2019-02-19T21:06:52.192Z,5.26
2019-02-19T21:09:24.466Z,5.16
2019-02-19T21:11:56.575Z,5.13
2019-02-19T21:14:28.820Z,5.01
2019-02-19T21:17:01.094Z,4.96
2019-02-19T21:19:33.281Z,4.86
2019-02-19T21:22:06.430Z,4.87
2019-02-19T21:24:38.552Z,4.82
2019-02-19T21:27:10.704Z,4.74
2019-02-19T21:29:42.820Z,4.73
2019-02-19T21:32:14.911Z,4.68
2019-02-19T21:34:46.943Z,4.65
2019-02-19T21:37:19.173Z,4.60
2019-02-19T21:39:51.462Z,4.57
2019-02-19T21:42:23.461Z,4.46
2019-02-19T21:44:56.906Z,4.42
2019-02-19T21:47:28.917Z,4.28
2019-02-19T21:50:01.066Z,4.28
2019-02-19T21:52:33.149Z,4.31
2019-02-19T21:55:05.364Z,4.18
2019-02-19T21:57:37.454Z,4.19
2019-02-19T22:00:10.437Z,4.24
2019-02-19T22:02:44.243Z,4.23
2019-02-19T22:05:17.365Z,4.14
2019-02-19T22:07:49.542Z,4.08
2019-02-19T22:10:21.760Z,3.94
2019-02-19T22:12:53.893Z,3.87
2019-02-19T22:15:25.934Z,3.85
2019-02-19T22:17:57.968Z,3.71
2019-02-19T22:20:39.536Z,3.74
2019-02-19T22:23:11.560Z,3.77
2019-02-19T22:25:43.600Z,3.68
2019-02-19T22:28:16.923Z,3.66
2019-02-19T22:30:50.038Z,3.73
2019-02-19T22:33:22.177Z,3.77
2019-02-19T22:35:54.325Z,3.75
2019-02-19T22:38:26.315Z,3.68
2019-02-19T22:40:58.344Z,3.55
2019-02-19T22:43:30.346Z,3.50
2019-02-19T22:46:02.296Z,3.46
2019-02-19T22:48:34.447Z,3.54
2019-02-19T22:51:06.430Z,3.51
2019-02-19T22:53:45.176Z,3.42
2019-02-19T22:56:24.368Z,3.27
2019-02-19T22:58:56.376Z,3.27
2019-02-19T23:01:57.194Z,3.26
2019-02-19T23:04:29.289Z,3.26
2019-02-19T23:07:01.306Z,3.28
2019-02-19T23:09:33.320Z,3.32
2019-02-19T23:12:05.390Z,3.36
2019-02-19T23:14:37.392Z,3.36
2019-02-19T23:17:09.531Z,3.39
2019-02-19T23:19:42.928Z,3.36
2019-02-19T23:22:21.410Z,3.33
2019-02-19T23:24:50.480Z,3.19
2019-02-19T23:27:22.620Z,3.15
2019-02-19T23:29:54.623Z,3.07
2019-02-19T23:32:26.620Z,3.00
2019-02-19T23:35:33.264Z,3.06
2019-02-19T23:38:05.262Z,3.00
2019-02-19T23:40:37.293Z,2.98
2019-02-19T23:43:09.267Z,2.94
2019-02-19T23:45:41.293Z,2.95
2019-02-19T23:48:13.278Z,2.92
2019-02-19T23:50:45.369Z,2.96
2019-02-19T23:53:17.371Z,2.94
2019-02-19T23:55:51.183Z,2.90
2019-02-19T23:58:23.259Z,2.87
